createdAt,value
2018-06-28T00:02:25.337Z,18.20
2018-06-28T00:04:53.799Z,18.16
2018-06-28T00:07:23.628Z,18.10
2018-06-28T00:09:51.280Z,18.09
2018-06-28T00:12:20.167Z,18.06
2018-06-28T00:14:47.820Z,18.04
2018-06-28T00:17:15.469Z,18.02
2018-06-28T00:19:43.113Z,17.96
2018-06-28T00:22:11.269Z,17.95
2018-06-28T00:24:38.941Z,17.91
2018-06-28T00:27:06.590Z,17.87
2018-06-28T00:29:34.242Z,17.84
2018-06-28T00:32:04.299Z,17.83
2018-06-28T00:34:31.962Z,17.79
2018-06-28T00:36:59.669Z,17.77
2018-06-28T00:39:27.736Z,17.75
2018-06-28T00:41:55.391Z,17.71
2018-06-28T00:44:23.042Z,17.70
2018-06-28T00:46:51.245Z,17.64
2018-06-28T00:49:20.611Z,17.60
2018-06-28T00:51:48.296Z,17.52
2018-06-28T00:54:15.987Z,17.51
2018-06-28T00:56:44.123Z,17.47
2018-06-28T00:59:11.798Z,17.40
2018-06-28T01:01:39.512Z,17.32
2018-06-28T01:04:07.188Z,17.25
2018-06-28T01:06:34.846Z,17.18
2018-06-28T01:09:02.645Z,17.20
2018-06-28T01:11:30.692Z,17.17
2018-06-28T01:13:58.389Z,17.16
2018-06-28T01:16:26.054Z,17.13
2018-06-28T01:18:53.683Z,17.08
2018-06-28T01:21:22.459Z,17.08
2018-06-28T01:23:50.108Z,17.05
2018-06-28T01:26:17.751Z,17.05
2018-06-28T01:28:45.783Z,17.02
2018-06-28T01:31:13.444Z,16.99
2018-06-28T01:33:41.095Z,16.98
2018-06-28T01:36:09.175Z,16.97
2018-06-28T01:38:36.967Z,16.93
2018-06-28T01:41:04.694Z,16.92
2018-06-28T01:43:34.910Z,16.89
2018-06-28T01:46:03.074Z,16.87
2018-06-28T01:48:30.725Z,16.83
2018-06-28T01:50:58.833Z,16.81
2018-06-28T01:53:26.731Z,16.78
2018-06-28T01:55:54.746Z,16.78
2018-06-28T01:58:22.475Z,16.78
2018-06-28T02:00:50.191Z,16.77
2018-06-28T02:03:18.379Z,16.75
2018-06-28T02:05:46.171Z,16.75
2018-06-28T02:08:13.837Z,16.73
2018-06-28T02:10:41.817Z,16.68
2018-06-28T02:13:09.494Z,16.66
2018-06-28T02:15:37.403Z,16.65
2018-06-28T02:18:05.294Z,16.63
2018-06-28T02:20:33.414Z,16.63
2018-06-28T02:23:01.144Z,16.63
2018-06-28T02:25:28.843Z,16.61
2018-06-28T02:27:56.487Z,16.61
2018-06-28T02:30:24.503Z,16.60
2018-06-28T02:32:52.202Z,16.60
2018-06-28T02:35:19.875Z,16.61
2018-06-28T02:37:48.939Z,16.61
2018-06-28T02:40:16.609Z,16.59
2018-06-28T02:42:44.326Z,16.58
2018-06-28T02:45:12.312Z,16.56
2018-06-28T02:47:39.969Z,16.55
2018-06-28T02:50:07.655Z,16.53
2018-06-28T02:52:36.871Z,16.51
2018-06-28T02:55:07.973Z,16.50
2018-06-28T02:57:35.622Z,16.48
2018-06-28T03:00:03.273Z,16.54
2018-06-28T03:02:30.917Z,16.54
2018-06-28T03:04:58.893Z,16.50
2018-06-28T03:10:04.158Z,16.44
2018-06-28T03:12:32.410Z,16.40
2018-06-28T03:15:00.462Z,16.38
2018-06-28T03:17:28.684Z,16.38
2018-06-28T03:19:56.376Z,16.36
2018-06-28T03:22:24.030Z,16.34
2018-06-28T03:24:52.106Z,16.32
2018-06-28T03:27:19.763Z,16.32
2018-06-28T03:29:47.432Z,16.30
2018-06-28T03:32:15.457Z,16.28
2018-06-28T03:34:43.135Z,16.27
2018-06-28T03:37:10.814Z,16.28
2018-06-28T03:39:38.888Z,16.30
2018-06-28T03:42:06.550Z,16.29
2018-06-28T03:44:34.194Z,16.28
2018-06-28T03:47:01.877Z,16.28
2018-06-28T03:49:29.937Z,16.25
2018-06-28T03:51:57.596Z,16.26
2018-06-28T03:54:25.254Z,16.29
2018-06-28T03:56:53.359Z,16.32
2018-06-28T03:59:21.565Z,16.34
2018-06-28T04:01:49.576Z,16.31
2018-06-28T04:04:17.250Z,16.33
2018-06-28T04:06:45.045Z,16.36
2018-06-28T04:09:12.988Z,16.38
2018-06-28T04:11:41.037Z,16.38
2018-06-28T04:14:08.733Z,16.38
2018-06-28T04:16:36.536Z,16.37
2018-06-28T04:19:05.019Z,16.43
2018-06-28T04:21:33.044Z,16.45
2018-06-28T04:24:00.726Z,16.46
2018-06-28T04:26:28.409Z,16.46
2018-06-28T04:28:56.605Z,16.43
2018-06-28T04:31:24.244Z,16.45
2018-06-28T04:33:52.498Z,16.44
2018-06-28T04:36:20.621Z,16.45
2018-06-28T04:38:48.314Z,16.48
2018-06-28T04:41:16.042Z,16.51
2018-06-28T04:43:44.105Z,16.54
2018-06-28T04:46:11.814Z,16.58
2018-06-28T04:48:39.474Z,16.61
2018-06-28T04:51:07.465Z,16.63
2018-06-28T04:53:35.187Z,16.65
2018-06-28T04:56:04.094Z,16.69
2018-06-28T04:58:32.116Z,16.72
2018-06-28T05:00:59.777Z,16.76
2018-06-28T05:03:27.458Z,16.81
2018-06-28T05:05:56.386Z,16.85
2018-06-28T05:08:24.065Z,16.90
2018-06-28T05:10:51.739Z,16.96
2018-06-28T05:13:19.894Z,17.00
2018-06-28T05:15:47.673Z,17.06
2018-06-28T05:18:15.431Z,17.06
2018-06-28T05:20:43.494Z,17.09
2018-06-28T05:23:11.155Z,17.11
2018-06-28T05:25:38.798Z,17.11
2018-06-28T05:28:07.044Z,17.14
2018-06-28T05:30:34.711Z,17.18
2018-06-28T05:33:02.374Z,17.21
2018-06-28T05:35:30.507Z,17.25
2018-06-28T05:37:58.228Z,17.27
2018-06-28T05:40:25.926Z,17.31
2018-06-28T05:42:54.078Z,17.36
2018-06-28T05:45:21.697Z,17.41
2018-06-28T05:47:50.308Z,17.45
2018-06-28T05:52:53.987Z,17.54
2018-06-28T05:55:22.955Z,17.57
2018-06-28T05:57:50.642Z,17.61
2018-06-28T06:00:18.303Z,17.66
2018-06-28T06:02:46.367Z,17.68
2018-06-28T06:05:14.427Z,17.75
2018-06-28T06:07:42.200Z,17.82
2018-06-28T06:10:10.485Z,17.87
2018-06-28T06:12:38.227Z,17.91
2018-06-28T06:15:05.965Z,17.97
2018-06-28T06:17:34.170Z,18.02
2018-06-28T06:20:02.547Z,18.08
2018-06-28T06:22:30.189Z,18.17
2018-06-28T06:25:00.147Z,18.23
2018-06-28T06:46:44.623Z,18.85
2018-06-28T06:49:12.775Z,18.91
2018-06-28T06:51:41.428Z,18.97
2018-06-28T06:54:09.125Z,19.04
2018-06-28T06:56:38.621Z,19.09
2018-06-28T06:59:07.298Z,19.16
2018-06-28T07:01:35.638Z,19.22
2018-06-28T07:04:04.712Z,19.28
2018-06-28T07:06:32.413Z,19.34
2018-06-28T07:09:00.094Z,19.40
2018-06-28T07:11:28.140Z,19.47
2018-06-28T07:13:56.522Z,19.55
2018-06-28T07:16:24.212Z,19.62
2018-06-28T07:18:52.927Z,19.70
2018-06-28T07:21:20.620Z,19.77
2018-06-28T07:23:48.332Z,19.86
2018-06-28T07:26:16.375Z,19.92
2018-06-28T07:28:44.288Z,19.99
2018-06-28T07:31:11.988Z,20.06
2018-06-28T07:33:40.170Z,20.14
2018-06-28T07:36:07.882Z,20.23
2018-06-28T07:38:35.578Z,20.31
2018-06-28T07:41:03.255Z,20.36
2018-06-28T07:46:12.400Z,20.54
2018-06-28T07:48:41.119Z,20.60
2018-06-28T07:51:08.964Z,20.67
2018-06-28T07:53:37.231Z,20.77
2018-06-28T07:56:04.912Z,20.84
2018-06-28T07:58:32.617Z,20.93
2018-06-28T08:01:00.637Z,21.03
2018-06-28T08:03:30.173Z,21.11
2018-06-28T08:05:58.792Z,21.20
2018-06-28T08:08:26.885Z,21.27
2018-06-28T08:10:55.688Z,21.37
2018-06-28T08:13:24.154Z,21.45
2018-06-28T08:15:57.331Z,21.54
2018-06-28T08:18:25.330Z,21.64
2018-06-28T08:29:04.081Z,22.02
2018-06-28T08:31:32.746Z,22.13
2018-06-28T08:34:00.479Z,22.22
2018-06-28T08:36:30.030Z,22.34
2018-06-28T08:38:57.761Z,22.46
2018-06-28T08:41:25.434Z,22.57
2018-06-28T08:43:53.585Z,22.66
2018-06-28T08:46:21.273Z,22.74
2018-06-28T08:48:50.344Z,22.85
2018-06-28T08:51:18.374Z,22.95
2018-06-28T08:53:46.024Z,23.05
2018-06-28T08:56:13.730Z,23.12
2018-06-28T08:58:43.029Z,23.21
2018-06-28T09:01:11.575Z,23.30
2018-06-28T09:03:39.435Z,23.37
2018-06-28T09:06:08.535Z,23.44
2018-06-28T09:08:42.481Z,23.53
2018-06-28T09:11:10.626Z,23.65
2018-06-28T09:13:38.615Z,23.76
2018-06-28T09:16:06.734Z,23.85
2018-06-28T09:18:35.482Z,23.94
2018-06-28T09:21:03.661Z,24.03
2018-06-28T09:23:34.054Z,24.11
2018-06-28T09:26:03.211Z,24.19
2018-06-28T09:28:33.309Z,24.30
2018-06-28T09:31:02.005Z,24.38
2018-06-28T09:33:31.309Z,24.44
2018-06-28T09:35:59.685Z,24.51
2018-06-28T09:43:49.714Z,24.83
2018-06-28T09:46:17.870Z,24.96
2018-06-28T09:51:16.329Z,25.09
2018-06-28T09:53:45.975Z,25.23
2018-06-28T09:56:13.734Z,25.34
2018-06-28T09:58:41.611Z,25.42
2018-06-28T10:01:09.807Z,25.48
2018-06-28T10:03:38.125Z,25.51
2018-06-28T10:06:05.943Z,25.55
2018-06-28T10:08:34.303Z,25.60
2018-06-28T10:11:01.982Z,25.65
2018-06-28T10:13:29.682Z,25.70
2018-06-28T10:15:59.939Z,25.79
2018-06-28T10:18:28.524Z,25.91
2018-06-28T10:20:58.653Z,26.01
2018-06-28T10:23:27.500Z,26.14
2018-06-28T10:25:55.364Z,26.32
2018-06-28T10:31:07.159Z,26.64
2018-06-28T10:33:36.036Z,26.74
2018-06-28T10:36:03.759Z,26.86
2018-06-28T10:41:09.473Z,27.11
2018-06-28T10:43:38.919Z,27.23
2018-06-28T10:46:06.631Z,27.34
2018-06-28T10:48:35.506Z,27.44
2018-06-28T10:51:06.638Z,27.55
2018-06-28T10:53:35.433Z,27.61
2018-06-28T10:56:03.681Z,27.63
2018-06-28T10:58:33.382Z,27.72
2018-06-28T11:09:50.533Z,28.15
2018-06-28T11:12:19.802Z,28.20
2018-06-28T11:14:59.154Z,28.30
2018-06-28T11:17:39.539Z,28.48
2018-06-28T11:20:15.230Z,28.61
2018-06-28T11:25:27.742Z,28.76
2018-06-28T11:27:55.906Z,28.89
2018-06-28T11:39:08.257Z,29.21
2018-06-28T11:41:36.444Z,29.18
2018-06-28T11:44:06.828Z,29.26
2018-06-28T11:46:34.596Z,29.29
2018-06-28T11:49:06.417Z,29.37
2018-06-28T11:51:34.271Z,29.46
2018-06-28T11:54:04.057Z,29.57
2018-06-28T11:59:33.617Z,29.85
2018-06-28T12:02:02.546Z,29.96
2018-06-28T12:04:32.327Z,30.03
2018-06-28T12:07:00.030Z,30.10
2018-06-28T12:09:28.153Z,30.11
2018-06-28T12:11:55.811Z,30.24
2018-06-28T12:14:24.414Z,30.29
2018-06-28T12:33:56.720Z,30.79
2018-06-28T12:36:25.441Z,30.93
2018-06-28T12:38:53.150Z,31.12
2018-06-28T15:14:31.870Z,31.38
2018-06-28T15:17:00.824Z,31.45
2018-06-28T15:19:29.894Z,31.54
2018-06-28T15:21:58.248Z,31.64
2018-06-28T15:24:26.823Z,31.73
2018-06-28T15:26:56.116Z,31.80
2018-06-28T15:29:26.327Z,31.84
2018-06-28T15:46:08.245Z,31.87
2018-06-28T15:48:35.929Z,31.86
2018-06-28T15:56:11.736Z,31.74
2018-06-28T15:58:39.410Z,31.64
2018-06-28T16:01:11.198Z,31.56
2018-06-28T16:03:41.650Z,31.41
2018-06-28T16:06:10.923Z,31.41
2018-06-28T16:08:39.171Z,31.52
2018-06-28T16:11:07.854Z,31.56
2018-06-28T16:41:14.443Z,32.02
2018-06-28T16:43:42.165Z,31.95
2018-06-28T16:46:10.213Z,31.90
2018-06-28T16:48:37.918Z,31.92
2018-06-28T16:51:07.644Z,31.96
2018-06-28T19:57:16.745Z,27.12
2018-06-28T19:59:50.568Z,27.05
2018-06-28T20:14:03.343Z,26.34
2018-06-28T20:16:36.389Z,26.24
2018-06-28T20:19:09.374Z,26.14
2018-06-28T20:21:38.546Z,26.04
2018-06-28T20:24:09.606Z,25.93
2018-06-28T20:26:42.584Z,25.83
